Time;durP1;ratioP1;P1;durP2;ratioP2;P2;SDS_P1;SDS_P2;PMS_P1;PMS_P2;Temp;Humidity;BMP_temperature;BMP_pressure;BME280_temperature;BME280_humidity;BME280_pressure;Samples;Min_cycle;Max_cycle;Signal;HPM_P1;HPM_P2
2023/01/16 00:05:31;;;;;;;2.50;0.80;;;;;;;9.44;100.00;98219.02;266352;1279;116097;-84
2023/01/16 00:11:34;;;;;;;1.50;0.90;;;;;;;9.41;100.00;98223.17;266517;1279;26608;-85
2023/01/16 00:17:37;;;;;;;2.40;0.90;;;;;;;9.31;100.00;98226.06;266522;1277;22773;-85
2023/01/16 00:23:39;;;;;;;2.00;0.90;;;;;;;9.27;100.00;98216.83;266516;1277;25250;-82
2023/01/16 00:29:45;;;;;;;2.00;0.80;;;;;;;9.14;100.00;98211.42;266492;1280;22776;-85
2023/01/16 00:35:48;;;;;;;1.60;0.90;;;;;;;9.16;100.00;98204.52;266470;1279;22637;-85
2023/01/16 00:41:51;;;;;;;2.30;0.80;;;;;;;9.04;100.00;98203.41;265974;1280;22567;-85
2023/01/16 00:47:54;;;;;;;2.10;1.00;;;;;;;8.98;100.00;98199.45;266311;1277;25356;-86
2023/01/16 00:53:56;;;;;;;1.70;0.90;;;;;;;8.81;100.00;98201.60;266401;1279;22546;-83
2023/01/16 00:59:59;;;;;;;1.30;0.80;;;;;;;8.63;100.00;98201.37;266327;1279;24229;-85
2023/01/16 01:06:11;;;;;;;1.30;0.80;;;;;;;8.55;100.00;98202.98;266571;1279;22598;-84
2023/01/16 01:12:14;;;;;;;1.80;0.80;;;;;;;8.39;100.00;98198.11;266530;1264;22592;-84
2023/01/16 01:18:17;;;;;;;1.50;1.00;;;;;;;8.02;100.00;98209.83;266148;1274;25363;-84
2023/01/16 01:24:20;;;;;;;2.00;0.80;;;;;;;7.78;100.00;98206.00;266017;1279;22546;-84
2023/01/16 01:30:22;;;;;;;2.10;1.10;;;;;;;7.73;100.00;98199.30;266453;1279;24366;-84
2023/01/16 01:36:25;;;;;;;2.40;1.10;;;;;;;7.59;100.00;98192.40;266017;1280;25250;-85
2023/01/16 01:42:43;;;;;;;2.10;1.10;;;;;;;7.54;100.00;98185.56;266563;1279;24302;-84
2023/01/16 01:48:47;;;;;;;1.70;1.00;;;;;;;7.38;100.00;98187.95;266462;1279;22534;-84
2023/01/16 01:54:55;;;;;;;2.50;1.30;;;;;;;7.23;100.00;98192.16;265982;1273;22536;-83
2023/01/16 02:00:59;;;;;;;2.00;1.30;;;;;;;7.15;100.00;98193.98;266585;1280;22591;-84
2023/01/16 02:07:05;;;;;;;2.40;1.20;;;;;;;7.11;100.00;98187.36;266603;1280;24209;-85
2023/01/16 02:13:09;;;;;;;2.30;1.00;;;;;;;7.01;100.00;98183.59;266480;1280;22663;-85
2023/01/16 02:19:28;;;;;;;1.70;0.90;;;;;;;6.87;100.00;98169.15;266318;1263;23228;-84
2023/01/16 02:25:51;;;;;;;2.40;1.10;;;;;;;6.75;100.00;98157.11;266858;1274;22569;-84
2023/01/16 02:32:03;;;;;;;2.50;1.30;;;;;;;6.47;100.00;98154.86;266211;1264;22537;-85
2023/01/16 02:38:38;;;;;;;1.70;1.00;;;;;;;6.46;100.00;98145.84;266332;1279;24400;-87
2023/01/16 02:45:05;;;;;;;1.70;1.20;;;;;;;6.51;100.00;98142.98;265971;1263;22697;-85
2023/01/16 02:51:18;;;;;;;2.80;1.10;;;;;;;6.66;100.00;98137.55;266144;1279;25561;-83
2023/01/16 02:57:22;;;;;;;2.60;1.20;;;;;;;6.83;100.00;98134.55;266129;1279;26629;-84
2023/01/16 03:03:44;;;;;;;2.30;1.10;;;;;;;6.72;100.00;98139.64;266338;1279;24361;-85
2023/01/16 03:10:28;;;;;;;1.70;1.10;;;;;;;6.59;100.00;98133.62;266170;1279;22652;-87
2023/01/16 03:17:00;;;;;;;2.90;1.30;;;;;;;6.53;100.00;98138.73;266222;1257;22544;-86
2023/01/16 03:23:12;;;;;;;3.00;1.20;;;;;;;6.33;100.00;98135.90;266403;1279;22648;-87
2023/01/16 03:29:38;;;;;;;2.30;1.10;;;;;;;6.29;100.00;98124.79;266040;1279;22593;-86
2023/01/16 03:36:11;;;;;;;;;;;;;;;6.27;100.00;98117.70;266247;1279;22527;-85
2023/01/16 03:42:21;;;;;;;2.90;1.20;;;;;;;6.04;100.00;98116.20;265801;1279;26625;-85
2023/01/16 03:48:34;;;;;;;2.10;1.00;;;;;;;5.87;100.00;98126.13;266118;1279;22533;-85
2023/01/16 03:55:01;;;;;;;3.20;1.30;;;;;;;5.83;100.00;98131.34;266142;1279;24082;-84
2023/01/16 04:01:11;;;;;;;1.80;1.10;;;;;;;5.86;100.00;98129.23;266285;1279;22719;-84
2023/01/16 04:07:20;;;;;;;1.60;1.10;;;;;;;5.68;100.00;98125.73;266290;1279;22560;-84
2023/01/16 04:13:30;;;;;;;3.00;1.40;;;;;;;5.51;100.00;98111.13;266798;1279;22549;-84
2023/01/16 04:19:34;;;;;;;3.50;1.40;;;;;;;5.66;100.00;98099.80;266106;1276;24210;-84
2023/01/16 04:25:37;;;;;;;3.00;1.40;;;;;;;5.92;100.00;98091.52;265835;1279;25355;-83
2023/01/16 04:31:40;;;;;;;2.10;1.10;;;;;;;6.07;100.00;98087.16;266175;1274;22595;-82
2023/01/16 04:37:43;;;;;;;2.10;1.30;;;;;;;5.92;100.00;98089.93;266515;1274;24242;-82
2023/01/16 04:43:46;;;;;;;3.00;1.40;;;;;;;6.00;100.00;98086.16;266384;1279;22588;-83
2023/01/16 04:49:48;;;;;;;2.90;1.60;;;;;;;6.20;100.00;98084.45;266340;1261;22554;-84
2023/01/16 04:55:52;;;;;;;3.70;1.50;;;;;;;6.44;100.00;98076.73;266281;1270;25446;-81
2023/01/16 05:01:55;;;;;;;2.20;1.50;;;;;;;6.45;100.00;98069.73;266497;1261;22646;-82
2023/01/16 05:08:16;;;;;;;2.40;1.60;;;;;;;6.33;100.00;98062.11;266157;1278;22619;-84
2023/01/16 05:14:19;;;;;;;4.10;1.60;;;;;;;6.18;100.00;98055.85;266116;1260;25268;-81
2023/01/16 05:20:22;;;;;;;2.60;1.30;;;;;;;6.41;100.00;98046.16;266060;1274;24267;-81
2023/01/16 05:26:25;;;;;;;3.50;1.40;;;;;;;6.41;100.00;98033.15;266334;1280;23890;-82
2023/01/16 05:32:30;;;;;;;3.20;1.70;;;;;;;6.37;100.00;98026.96;266150;1274;25429;-82
2023/01/16 05:38:46;;;;;;;3.50;1.70;;;;;;;6.34;100.00;98025.45;266217;1273;22581;-82
2023/01/16 05:44:50;;;;;;;2.00;1.30;;;;;;;6.36;100.00;98019.09;266472;1274;23255;-83
2023/01/16 05:51:00;;;;;;;2.40;1.40;;;;;;;6.44;100.00;98006.48;266233;1259;24361;-88
2023/01/16 05:57:03;;;;;;;2.90;1.40;;;;;;;6.30;100.00;98006.34;266034;1280;22544;-88
2023/01/16 06:03:08;;;;;;;2.60;1.30;;;;;;;6.37;100.00;98005.35;266082;1279;25289;-87
2023/01/16 06:09:11;;;;;;;3.00;1.70;;;;;;;6.48;100.00;97994.99;266240;1279;22560;-82
2023/01/16 06:15:14;;;;;;;2.90;1.70;;;;;;;6.46;100.00;97986.83;266389;1277;22542;-83
2023/01/16 06:21:17;;;;;;;2.60;1.80;;;;;;;6.45;100.00;97983.16;266333;1263;22897;-85
2023/01/16 06:27:19;;;;;;;3.10;1.70;;;;;;;6.50;100.00;97980.66;266354;1280;26617;-83
2023/01/16 06:33:22;;;;;;;3.80;1.70;;;;;;;6.51;100.00;97977.53;266427;1280;22562;-84
2023/01/16 06:39:25;;;;;;;3.50;1.90;;;;;;;6.60;100.00;97977.39;266555;1273;22578;-84
2023/01/16 06:45:40;;;;;;;3.70;2.10;;;;;;;6.63;100.00;97970.93;266393;1280;25449;-86
2023/01/16 06:51:43;;;;;;;3.40;1.90;;;;;;;6.66;100.00;97972.81;266452;1276;22649;-85
2023/01/16 06:57:49;;;;;;;3.40;2.10;;;;;;;6.80;100.00;97974.67;266442;1277;22548;-82
2023/01/16 07:03:59;;;;;;;3.10;1.80;;;;;;;7.00;100.00;97966.88;266236;1276;22543;-83
2023/01/16 07:10:03;;;;;;;2.70;1.70;;;;;;;6.85;100.00;97960.03;266276;1261;22544;-83
2023/01/16 07:22:34;;;;;;;3.20;1.80;;;;;;;7.01;100.00;97952.04;266328;1280;25356;-87
2023/01/16 07:28:38;;;;;;;3.10;2.10;;;;;;;7.05;100.00;97946.79;266414;1279;24247;-86
2023/01/16 07:34:49;;;;;;;3.60;2.30;;;;;;;7.15;100.00;97946.77;268233;1280;24494;-92
2023/01/16 07:40:55;;;;;;;3.20;1.80;;;;;;;7.24;100.00;97949.64;266616;1275;22693;-86
2023/01/16 07:46:58;;;;;;;3.60;2.20;;;;;;;7.22;100.00;97948.58;266600;1277;25294;-86
2023/01/16 07:53:01;;;;;;;3.10;2.00;;;;;;;7.37;100.00;97942.51;266600;1279;25356;-84
2023/01/16 07:59:04;;;;;;;4.30;2.40;;;;;;;7.32;100.00;97935.95;267159;1279;22580;-84
2023/01/16 08:05:08;;;;;;;3.80;2.30;;;;;;;7.52;100.00;97929.48;266366;1279;22655;-83
2023/01/16 08:17:32;;;;;;;3.20;1.90;;;;;;;7.76;100.00;97914.12;266821;1279;24193;-85
2023/01/16 08:23:39;;;;;;;4.00;2.10;;;;;;;7.56;100.00;97903.88;267087;1279;22707;-86
2023/01/16 08:29:42;;;;;;;3.40;2.20;;;;;;;7.71;100.00;97885.79;266387;1278;23877;-86
2023/01/16 08:35:45;;;;;;;4.00;2.20;;;;;;;7.64;100.00;97878.33;266478;1279;22729;-86
2023/01/16 08:54:32;;;;;;;4.90;2.50;;;;;;;7.99;100.00;97845.20;267082;1280;22567;-86
2023/01/16 09:00:36;;;;;;;4.00;2.50;;;;;;;8.13;100.00;97842.46;267137;1279;23309;-86
2023/01/16 09:06:44;;;;;;;4.00;2.50;;;;;;;8.05;100.00;97832.00;266690;1279;24218;-86
2023/01/16 09:19:21;;;;;;;11.20;3.40;;;;;;;8.37;100.00;97811.45;266483;1280;25284;-88
2023/01/16 09:25:24;;;;;;;5.00;2.60;;;;;;;8.55;100.00;97795.52;266145;1280;22540;-87
2023/01/16 09:31:36;;;;;;;7.00;3.60;;;;;;;8.73;100.00;97778.32;266214;1279;24257;-86
2023/01/16 09:37:42;;;;;;;8.10;4.50;;;;;;;8.59;100.00;97771.52;266411;1279;25562;-89
2023/01/16 09:43:48;;;;;;;9.80;5.60;;;;;;;8.71;100.00;97756.00;266134;1279;22579;-87
2023/01/16 09:49:54;;;;;;;12.10;6.20;;;;;;;8.85;100.00;97730.75;265989;1276;22533;-88
2023/01/16 10:02:32;;;;;;;11.40;6.80;;;;;;;9.30;100.00;97688.69;266333;1278;26710;-87
2023/01/16 10:08:58;;;;;;;12.20;7.60;;;;;;;9.11;100.00;97675.44;266131;1280;22578;-87
2023/01/16 10:15:18;;;;;;;14.30;7.70;;;;;;;9.08;100.00;97656.16;266686;1273;22719;-87
2023/01/16 10:21:49;;;;;;;16.90;8.40;;;;;;;9.09;100.00;97651.77;266334;1279;25322;-87
2023/01/16 10:28:13;;;;;;;18.00;9.40;;;;;;;9.43;100.00;97643.28;267736;1279;22580;-87
2023/01/16 10:34:22;;;;;;;15.80;9.60;;;;;;;9.34;100.00;97616.20;267920;1279;25928;-87
2023/01/16 10:40:27;;;;;;;19.70;10.20;;;;;;;9.29;100.00;97600.44;268113;1279;22553;-88
2023/01/16 10:52:56;;;;;;;19.90;9.40;;;;;;;9.55;100.00;97574.25;267874;1275;22955;-87
2023/01/16 10:58:59;;;;;;;13.90;8.00;;;;;;;9.39;100.00;97554.69;268123;1279;24219;-87
2023/01/16 11:05:31;;;;;;;16.00;8.60;;;;;;;9.11;100.00;97540.20;268106;1271;22947;-87
2023/01/16 11:24:47;;;;;;;17.20;8.40;;;;;;;9.03;100.00;97510.88;266991;1283;22549;-87
2023/01/16 11:30:58;;;;;;;14.90;7.10;;;;;;;9.16;100.00;97499.98;267878;1279;22722;-88
2023/01/16 11:37:04;;;;;;;14.00;6.80;;;;;;;9.22;100.00;97486.30;267933;1277;22494;-87
2023/01/16 11:49:51;;;;;;;14.80;6.90;;;;;;;9.65;100.00;97467.39;268247;1279;22562;-88
2023/01/16 11:56:23;;;;;;;14.70;7.30;;;;;;;9.83;100.00;97451.33;268053;1274;22543;-88
2023/01/16 12:02:35;;;;;;;19.80;8.40;;;;;;;10.02;100.00;97438.05;268547;1279;22583;-86
2023/01/16 12:09:00;;;;;;;16.20;7.10;;;;;;;9.88;100.00;97420.80;268253;1279;96862;-87
2023/01/16 12:15:45;;;;;;;18.00;7.70;;;;;;;9.53;100.00;97404.20;267955;1273;25252;-83
2023/01/16 12:22:19;;;;;;;16.20;7.10;;;;;;;9.07;100.00;97393.90;267902;1279;23348;-83
2023/01/16 12:28:35;;;;;;;14.40;6.40;;;;;;;9.13;100.00;97369.80;268123;1279;22569;-84
2023/01/16 12:34:54;;;;;;;12.60;6.70;;;;;;;9.02;100.00;97364.98;268088;1279;22540;-84
2023/01/16 12:48:13;;;;;;;10.80;6.00;;;;;;;9.38;100.00;97343.60;267628;1279;24518;-85
2023/01/16 12:54:55;;;;;;;11.10;6.70;;;;;;;9.07;100.00;97331.01;267697;1276;22599;-84
2023/01/16 13:01:14;;;;;;;12.00;7.50;;;;;;;9.22;100.00;97325.23;266837;1280;22786;-85
2023/01/16 13:07:18;;;;;;;12.40;6.70;;;;;;;9.70;100.00;97323.08;267892;1279;22699;-85
2023/01/16 13:13:30;;;;;;;10.70;7.10;;;;;;;9.34;100.00;97313.55;267800;1279;22736;-84
2023/01/16 13:19:38;;;;;;;12.50;6.70;;;;;;;9.39;100.00;97299.27;268071;1277;22893;-85
2023/01/16 13:25:45;;;;;;;;;;;;;;;9.53;100.00;97283.63;267724;1261;24339;-86
2023/01/16 13:31:56;;;;;;;10.40;6.20;;;;;;;9.39;100.00;97273.30;268075;1276;23764;-85
2023/01/16 13:38:25;;;;;;;13.60;6.90;;;;;;;9.10;100.00;97261.79;268073;1279;24389;-85
2023/01/16 13:51:00;;;;;;;;;;;;;;;9.03;100.00;97233.63;267813;1279;23869;-83
2023/01/16 13:57:19;;;;;;;11.10;5.40;;;;;;;9.25;100.00;97219.78;267906;1274;24340;-84
2023/01/16 14:03:28;;;;;;;11.40;5.80;;;;;;;9.11;100.00;97212.95;268064;1276;22708;-84
2023/01/16 14:09:35;;;;;;;9.80;6.00;;;;;;;8.95;100.00;97203.98;268051;1279;22570;-83
2023/01/16 14:28:31;;;;;;;10.90;6.00;;;;;;;9.07;100.00;97169.47;268216;1279;22558;-88
2023/01/16 14:34:36;;;;;;;10.50;5.60;;;;;;;9.18;100.00;97164.86;267700;1279;22584;-88
2023/01/16 15:00:20;;;;;;;8.70;5.10;;;;;;;8.16;100.00;97135.82;268239;1273;22570;-89
2023/01/16 15:06:27;;;;;;;10.60;5.30;;;;;;;7.87;100.00;97127.83;268152;1279;22544;-89
2023/01/16 15:12:41;;;;;;;10.40;5.60;;;;;;;7.68;100.00;97116.48;267897;1279;22779;-89
2023/01/16 15:25:36;;;;;;;10.30;5.40;;;;;;;7.75;100.00;97099.66;268983;1276;22640;-91
2023/01/16 15:31:45;;;;;;;8.90;5.60;;;;;;;7.78;100.00;97091.19;267656;1276;22620;-81
2023/01/16 15:37:53;;;;;;;12.50;5.40;;;;;;;7.58;100.00;97073.59;267986;1271;23331;-81
2023/01/16 15:51:00;;;;;;;9.60;5.20;;;;;;;7.50;100.00;97049.54;268105;1276;22770;-82
2023/01/16 15:57:04;;;;;;;9.00;5.10;;;;;;;7.40;100.00;97037.20;268278;1272;25347;-83
2023/01/16 16:03:33;;;;;;;10.90;5.80;;;;;;;7.40;100.00;97028.42;268010;1279;25363;-92
2023/01/16 16:09:41;;;;;;;10.20;6.20;;;;;;;7.49;100.00;97025.63;267333;1257;22618;-92
2023/01/16 16:28:46;;;;;;;12.00;6.60;;;;;;;7.64;100.00;96990.45;266881;1279;25502;-89
2023/01/16 16:34:56;;;;;;;11.30;6.80;;;;;;;7.53;100.00;96980.94;266714;1279;24374;-89
2023/01/16 16:41:12;;;;;;;13.30;6.80;;;;;;;7.56;100.00;96968.92;266610;1279;23301;-88
2023/01/16 16:47:28;;;;;;;10.60;6.40;;;;;;;7.55;100.00;96962.12;267127;1279;24194;-87
2023/01/16 16:53:33;;;;;;;11.70;6.70;;;;;;;7.55;100.00;96955.16;268092;1273;22569;-90
2023/01/16 16:59:40;;;;;;;11.70;6.80;;;;;;;7.55;100.00;96940.84;267449;1279;24255;-88
2023/01/16 17:05:44;;;;;;;12.10;6.50;;;;;;;7.41;100.00;96929.28;267769;1276;22602;-88
2023/01/16 17:11:54;;;;;;;12.00;6.70;;;;;;;7.70;100.00;96918.89;267895;1278;22567;-90
2023/01/16 17:17:59;;;;;;;12.60;6.90;;;;;;;7.92;100.00;96910.73;268229;1279;23240;-91
2023/01/16 17:24:03;;;;;;;10.50;6.10;;;;;;;7.77;100.00;96906.07;267736;1279;24305;-90
2023/01/16 17:30:08;;;;;;;11.10;6.60;;;;;;;7.74;100.00;96896.59;267407;1276;24830;-91
2023/01/16 17:36:23;;;;;;;11.00;5.80;;;;;;;7.85;100.00;96888.25;267881;1279;23958;-90
2023/01/16 17:48:49;;;;;;;10.30;5.70;;;;;;;7.83;100.00;96871.98;267708;1271;25253;-90
2023/01/16 18:01:23;;;;;;;10.10;5.70;;;;;;;7.84;100.00;96852.14;267143;1273;22946;-84
2023/01/16 18:07:26;;;;;;;12.10;6.60;;;;;;;8.00;100.00;96852.61;267938;1268;22537;-87
2023/01/16 18:19:55;;;;;;;12.30;7.10;;;;;;;7.84;100.00;96848.11;266827;1279;23290;-85
2023/01/16 18:25:58;;;;;;;13.10;8.20;;;;;;;7.94;100.00;96841.91;267062;1279;23237;-84
2023/01/16 18:32:22;;;;;;;13.10;7.50;;;;;;;8.12;100.00;96837.56;266580;1279;22578;-85
2023/01/16 19:03:55;;;;;;;13.50;8.30;;;;;;;7.75;100.00;96765.52;266189;1279;22533;-85
2023/01/16 19:10:02;;;;;;;13.30;7.70;;;;;;;7.96;100.00;96753.08;266549;1279;22656;-85
2023/01/16 19:22:29;;;;;;;14.50;8.20;;;;;;;7.88;100.00;96716.49;265952;1274;22578;-85
2023/01/16 19:28:32;;;;;;;17.50;8.30;;;;;;;7.91;100.00;96703.00;266371;1274;22575;-84
2023/01/16 19:34:37;;;;;;;15.60;8.40;;;;;;;7.80;100.00;96688.30;266391;1274;22632;-83
2023/01/16 19:40:40;;;;;;;13.80;8.00;;;;;;;7.58;100.00;96670.47;266193;1279;25314;-82
2023/01/16 19:46:56;;;;;;;13.30;8.00;;;;;;;7.77;100.00;96659.05;266940;1279;22589;-84
2023/01/16 19:53:04;;;;;;;13.70;7.40;;;;;;;7.78;100.00;96652.10;266375;1270;25571;-84
2023/01/16 19:59:13;;;;;;;12.50;7.50;;;;;;;7.47;100.00;96637.83;267228;1279;22578;-86
2023/01/16 20:05:16;;;;;;;10.80;6.60;;;;;;;7.39;100.00;96626.80;266694;1274;22539;-85
2023/01/16 20:11:19;;;;;;;9.80;6.20;;;;;;;8.17;100.00;96629.54;266747;1279;25454;-83
2023/01/16 20:17:24;;;;;;;12.70;7.30;;;;;;;8.46;100.00;96620.71;266604;1274;25489;-81
2023/01/16 20:23:30;;;;;;;11.90;6.60;;;;;;;8.59;100.00;96620.50;266575;1277;22593;-85
2023/01/16 20:29:36;;;;;;;9.90;6.20;;;;;;;8.43;100.00;96608.53;266495;1277;24272;-84
2023/01/16 20:35:39;;;;;;;10.20;6.30;;;;;;;8.31;100.00;96599.80;266647;1264;25481;-83
2023/01/16 20:48:21;;;;;;;10.90;6.50;;;;;;;8.37;100.00;96596.30;267734;1279;25576;-87
2023/01/16 20:54:29;;;;;;;11.90;6.90;;;;;;;8.64;100.00;96600.06;268030;1279;22565;-88
2023/01/16 21:00:51;;;;;;;13.10;7.30;;;;;;;8.61;100.00;96603.09;268825;1279;23493;-88
2023/01/16 21:06:55;;;;;;;11.30;6.50;;;;;;;8.51;100.00;96599.97;267454;1279;22590;-87
2023/01/16 21:25:55;;;;;;;10.60;6.40;;;;;;;7.98;100.00;96555.76;267009;1273;22648;-85
2023/01/16 21:32:01;;;;;;;11.20;6.70;;;;;;;7.97;100.00;96551.00;268093;1274;23284;-85
2023/01/16 21:38:07;;;;;;;;;;;;;;;8.17;100.00;96544.16;267998;1279;25241;-86
2023/01/16 21:50:40;;;;;;;11.70;6.30;;;;;;;8.09;100.00;96558.44;267738;1273;22555;-87
2023/01/16 21:57:06;;;;;;;11.70;6.10;;;;;;;8.03;100.00;96562.59;267798;1279;22577;-87
2023/01/16 22:03:20;;;;;;;11.80;6.30;;;;;;;7.63;100.00;96538.10;268176;1279;22552;-87
2023/01/16 22:09:29;;;;;;;12.60;7.30;;;;;;;6.90;100.00;96520.91;267869;1277;23044;-86
2023/01/16 22:21:55;;;;;;;11.50;7.00;;;;;;;6.76;100.00;96515.58;267884;1279;23341;-86
2023/01/16 22:28:15;;;;;;;11.40;6.40;;;;;;;7.00;100.00;96512.46;267686;1279;23894;-85
2023/01/16 22:34:21;;;;;;;10.60;6.10;;;;;;;6.55;100.00;96520.88;267882;1273;22797;-85
2023/01/16 22:40:30;;;;;;;13.20;7.00;;;;;;;6.27;100.00;96527.27;267743;1279;25350;-85
2023/01/16 22:46:36;;;;;;;11.10;6.90;;;;;;;6.25;100.00;96527.89;267957;1279;22572;-84
2023/01/16 22:52:39;;;;;;;10.70;6.60;;;;;;;6.80;100.00;96535.30;267956;1279;24417;-84
2023/01/16 22:58:44;;;;;;;11.20;6.50;;;;;;;6.72;100.00;96522.91;267944;1280;22717;-86
2023/01/16 23:04:47;;;;;;;11.80;6.30;;;;;;;6.60;100.00;96513.94;267999;1279;22588;-86
2023/01/16 23:11:35;;;;;;;11.40;6.30;;;;;;;6.30;100.00;96504.47;268266;1279;25359;-86
2023/01/16 23:17:49;;;;;;;12.00;7.00;;;;;;;6.26;100.00;96484.09;268011;1279;22578;-89
2023/01/16 23:24:01;;;;;;;12.00;6.40;;;;;;;6.25;100.00;96484.73;268160;1274;22598;-89
2023/01/16 23:30:17;;;;;;;13.10;6.70;;;;;;;6.26;100.00;96489.16;267877;1279;22676;-88
2023/01/16 23:36:23;;;;;;;10.40;6.00;;;;;;;6.27;100.00;96490.34;268082;1279;22721;-89
2023/01/16 23:49:15;;;;;;;11.30;6.10;;;;;;;6.00;100.00;96494.50;267715;1279;23331;-86
2023/01/16 23:55:26;;;;;;;10.20;6.50;;;;;;;6.25;100.00;96496.85;267583;1279;24463;-86
